Lake Dynasty — 3FZB2 — position and weather

sailwx.info

Track history (hours):
 
Tides and Currents Weather Stations Pressure Air Temp Water Temp Dewpoint Dewpoint Depression Visibility Wind Speed Wind Dir Waves Ship Positions

Lake Dynasty

Last reported at 2017-Jun-17 01:50 UTC. Time now 2017-Jun-23 08:53 UTC.
Position N 01°15' E 104°06'.

Length 182 m; draft 10.4 m.

Type: Cargo ship. MMSI: 370957000.

Date/timePositionNaut miles runAvg speedWind from/ knotsBaromVisibWave heightAir tempDewpointWater temp
2017-Jun-17 01:50N 01°15' E 104°06'514.1
2017-Jun-17 01:30N 01°15' E 104°02'612.4
2017-Jun-17 01:00N 01°14' E 103°55'3 4.4
2017-Jun-17 00:26N 01°15' E 103°53'0 0.1
2017-Jun-16 23:50N 01°15' E 103°53'0 0.0
2017-Jun-16 23:23N 01°15' E 103°53'0 0.0
2017-Jun-16 22:50N 01°15' E 103°53'0 0.0
2017-Jun-16 22:23N 01°15' E 103°53'0 0.0
2017-Jun-16 21:47N 01°15' E 103°53'0 0.0
2017-Jun-16 21:29N 01°15' E 103°53'0 0.1
2017-Jun-16 20:11N 01°15' E 103°53'0 0.0
2017-Jun-16 19:53N 01°15' E 103°53'0 0.0
2017-Jun-16 19:29N 01°15' E 103°53'0 0.1
2017-Jun-16 17:32N 01°15' E 103°53'0 0.1
2017-Jun-16 17:23N 01°15' E 103°53'0 0.0
2017-Jun-16 16:53N 01°15' E 103°53'0 0.0
2017-Jun-16 16:29N 01°15' E 103°53'0 0.0
2017-Jun-16 15:50N 01°15' E 103°53'0 0.2
2017-Jun-16 15:26N 01°15' E 103°53'0 0.0
2017-Jun-16 14:59N 01°15' E 103°53'0 0.1
2017-Jun-16 14:29N 01°15' E 103°53'1 1.2
2017-Jun-16 13:30N 01°14' E 103°53'1 2.8
2017-Jun-16 13:00N 01°13' E 103°54'3 5.1
2017-Jun-16 12:30N 01°14' E 103°57'3 5.4
2017-Jun-16 12:00N 01°15' E 103°59'3 6.0
2017-Jun-16 11:27N 01°16' E 104°03'3 7.6
2017-Jun-16 11:00N 01°16' E 104°06'  
Track history (hours):
 
Tides and Currents Weather Stations Pressure Air Temp Water Temp Dewpoint Dewpoint Depression Visibility Wind Speed Wind Dir Waves Ship Positions

Lake Dynasty

Last reported at 2017-Jun-17 01:50 UTC. Time now 2017-Jun-23 08:53 UTC.
Position N 01°15' E 104°06'.

Length 182 m; draft 10.4 m.

Type: Cargo ship. MMSI: 370957000.

Date/timePositionNaut miles runAvg speedWind from/ knotsBaromVisibWave heightAir tempDewpointWater temp
2017-Jun-17 01:50N 01°15' E 104°06'514.1
2017-Jun-17 01:30N 01°15' E 104°02'612.4
2017-Jun-17 01:00N 01°14' E 103°55'3 4.4
2017-Jun-17 00:26N 01°15' E 103°53'0 0.1
2017-Jun-16 23:50N 01°15' E 103°53'0 0.0
2017-Jun-16 23:23N 01°15' E 103°53'0 0.0
2017-Jun-16 22:50N 01°15' E 103°53'0 0.0
2017-Jun-16 22:23N 01°15' E 103°53'0 0.0
2017-Jun-16 21:47N 01°15' E 103°53'0 0.0
2017-Jun-16 21:29N 01°15' E 103°53'0 0.1
2017-Jun-16 20:11N 01°15' E 103°53'0 0.0
2017-Jun-16 19:53N 01°15' E 103°53'0 0.0
2017-Jun-16 19:29N 01°15' E 103°53'0 0.1
2017-Jun-16 17:32N 01°15' E 103°53'0 0.1
2017-Jun-16 17:23N 01°15' E 103°53'0 0.0
2017-Jun-16 16:53N 01°15' E 103°53'0 0.0
2017-Jun-16 16:29N 01°15' E 103°53'0 0.0
2017-Jun-16 15:50N 01°15' E 103°53'0 0.2
2017-Jun-16 15:26N 01°15' E 103°53'0 0.0
2017-Jun-16 14:59N 01°15' E 103°53'0 0.1
2017-Jun-16 14:29N 01°15' E 103°53'1 1.2
2017-Jun-16 13:30N 01°14' E 103°53'1 2.8
2017-Jun-16 13:00N 01°13' E 103°54'3 5.1
2017-Jun-16 12:30N 01°14' E 103°57'3 5.4
2017-Jun-16 12:00N 01°15' E 103°59'3 6.0
2017-Jun-16 11:27N 01°16' E 104°03'3 7.6
2017-Jun-16 11:00N 01°16' E 104°06'  

Dump ship's entire track history